createdAt,value
2022-08-19T00:01:07.765Z,57128.34
2022-08-19T00:06:10.292Z,57128.34
2022-08-19T00:11:12.135Z,57128.34
2022-08-19T00:16:26.108Z,57128.34
2022-08-19T00:21:28.414Z,57128.34
2022-08-19T00:26:29.894Z,57128.34
2022-08-19T00:31:32.328Z,57128.34
2022-08-19T00:36:34.244Z,57128.34
2022-08-19T00:41:36.507Z,57128.34
2022-08-19T00:46:41.011Z,57128.34
2022-08-19T00:51:45.574Z,57128.34
2022-08-19T00:56:47.220Z,57128.34
2022-08-19T01:01:49.034Z,57128.34
2022-08-19T01:06:50.583Z,57128.34
2022-08-19T01:11:52.745Z,57128.34
2022-08-19T01:16:56.471Z,57128.34
2022-08-19T01:22:14.039Z,57128.34
2022-08-19T01:27:16.347Z,57128.34
2022-08-19T01:32:32.099Z,57128.34
2022-08-19T01:37:57.861Z,57128.34
2022-08-19T01:43:00.783Z,57128.34
2022-08-19T01:48:03.639Z,101160.47
2022-08-19T01:53:08.064Z,101144.59
2022-08-19T01:58:22.173Z,101137.63
2022-08-19T02:03:24.375Z,101126.16
2022-08-19T02:08:27.939Z,101120.88
2022-08-19T02:13:29.774Z,101116.44
2022-08-19T02:18:31.277Z,101113.78
2022-08-19T02:23:32.766Z,101119.00
2022-08-19T02:28:34.553Z,101117.22
2022-08-19T02:33:36.075Z,101120.63
2022-08-19T02:38:38.586Z,101123.19
2022-08-19T02:43:44.400Z,101125.88
2022-08-19T02:49:06.161Z,101128.38
2022-08-19T02:54:09.197Z,101137.09
2022-08-19T02:59:12.465Z,101133.50
2022-08-19T03:04:16.698Z,101113.28
2022-08-19T03:09:20.622Z,101130.81
2022-08-19T03:14:22.197Z,101121.06
2022-08-19T03:19:23.782Z,101127.13
2022-08-19T03:24:25.647Z,101122.84
2022-08-19T03:29:30.467Z,101126.28
2022-08-19T03:34:35.069Z,101135.88
2022-08-19T03:39:38.934Z,101124.50
2022-08-19T03:44:40.805Z,101127.06
2022-08-19T03:49:42.401Z,101110.38
2022-08-19T03:54:43.937Z,101124.38
2022-08-19T03:59:45.632Z,101141.91
2022-08-19T04:04:47.336Z,101140.97
2022-08-19T04:09:50.096Z,101140.88
2022-08-19T04:14:51.622Z,101134.81
2022-08-19T04:19:53.130Z,101132.22
2022-08-19T04:24:54.623Z,101129.53
2022-08-19T04:29:56.120Z,101134.84
2022-08-19T04:35:02.717Z,101140.13
2022-08-19T04:40:36.434Z,101159.50
2022-08-19T04:45:43.485Z,101145.47
2022-08-19T04:50:45.749Z,101142.88
2022-08-19T04:55:47.258Z,101145.50
2022-08-19T05:00:48.835Z,101152.53
2022-08-19T05:05:50.449Z,101157.00
2022-08-19T05:10:52.608Z,101168.44
2022-08-19T05:15:56.500Z,101175.56
2022-08-19T05:21:16.457Z,101177.41
2022-08-19T05:26:17.957Z,101163.44
2022-08-19T05:31:19.857Z,101153.91
2022-08-19T05:36:21.377Z,101155.75
2022-08-19T05:41:30.212Z,101159.31
2022-08-19T05:46:31.727Z,101156.81
2022-08-19T05:51:35.643Z,101156.09
2022-08-19T05:56:40.172Z,101144.88
2022-08-19T06:01:43.560Z,101125.72
2022-08-19T06:06:47.059Z,101135.50
2022-08-19T06:11:52.880Z,101143.47
2022-08-19T06:16:56.007Z,57128.34
2022-08-19T06:21:59.299Z,57128.34
2022-08-19T06:27:03.718Z,57128.34
2022-08-19T06:32:05.379Z,57128.34
2022-08-19T06:37:06.881Z,57128.34
2022-08-19T06:42:12.184Z,57128.34
2022-08-19T06:47:23.606Z,57128.34
2022-08-19T06:52:26.825Z,57128.34
2022-08-19T06:57:32.310Z,101161.34
2022-08-19T07:02:33.800Z,101161.34
2022-08-19T07:07:35.585Z,101161.34
2022-08-19T07:12:38.143Z,101181.53
2022-08-19T07:17:40.264Z,101190.34
2022-08-19T07:22:43.562Z,101202.41
2022-08-19T07:27:46.210Z,101193.38
2022-08-19T07:32:48.012Z,101198.63
2022-08-19T07:37:53.990Z,101202.91
2022-08-19T07:42:55.842Z,101211.00
2022-08-19T07:47:57.486Z,101212.94
2022-08-19T07:52:59.197Z,101218.00
2022-08-19T07:58:00.721Z,101231.63
2022-08-19T08:03:04.912Z,101231.88
2022-08-19T08:08:27.534Z,101236.91
2022-08-19T08:13:29.475Z,101241.41
2022-08-19T08:18:32.129Z,101239.22
2022-08-19T08:23:33.631Z,101243.75
2022-08-19T08:28:35.131Z,101253.03
2022-08-19T08:33:36.634Z,101260.22
2022-08-19T08:38:41.725Z,101255.94
2022-08-19T08:43:52.173Z,101258.78
2022-08-19T08:49:17.657Z,101272.03
2022-08-19T08:54:25.300Z,101266.75
2022-08-19T08:59:35.423Z,101270.78
2022-08-19T09:04:38.409Z,101261.00
2022-08-19T09:09:44.561Z,101268.34
2022-08-19T09:14:51.827Z,101263.31
2022-08-19T09:19:58.024Z,101252.66
2022-08-19T09:25:00.169Z,101256.94
2022-08-19T09:30:01.855Z,101255.94
2022-08-19T09:35:03.670Z,101261.31
2022-08-19T09:40:12.259Z,101261.03
2022-08-19T09:45:17.956Z,101261.06
2022-08-19T09:50:19.604Z,101243.75
2022-08-19T09:55:21.115Z,101252.47
2022-08-19T10:00:22.739Z,101250.22
2022-08-19T10:05:42.801Z,101256.16
2022-08-19T10:10:46.276Z,101248.13
2022-08-19T10:15:49.604Z,101249.06
2022-08-19T10:20:53.196Z,101238.75
2022-08-19T10:25:54.713Z,101237.31
2022-08-19T10:30:56.202Z,101238.66
2022-08-19T10:36:02.473Z,101239.44
2022-08-19T10:41:20.679Z,101242.56
2022-08-19T10:46:25.063Z,101219.88
2022-08-19T10:51:48.005Z,101223.13
2022-08-19T10:56:53.027Z,101221.13
2022-08-19T11:01:59.563Z,101216.53
2022-08-19T11:07:01.048Z,101222.69
2022-08-19T11:12:04.794Z,101216.31
2022-08-19T11:17:07.464Z,101225.19
2022-08-19T11:22:11.695Z,101219.13
2022-08-19T11:27:17.688Z,101220.59
2022-08-19T11:32:19.277Z,101217.88
2022-08-19T11:37:24.228Z,101211.75
2022-08-19T11:42:44.275Z,101217.34
2022-08-19T11:47:47.078Z,101217.69
2022-08-19T11:52:50.537Z,101222.66
2022-08-19T11:57:52.071Z,101223.50
2022-08-19T12:02:53.560Z,101216.47
2022-08-19T12:07:55.489Z,101217.63
2022-08-19T12:12:58.647Z,101216.75
2022-08-19T12:18:00.570Z,101212.34
2022-08-19T12:23:02.193Z,101202.78
2022-08-19T12:28:04.761Z,101197.31
2022-08-19T12:33:06.639Z,101195.41
2022-08-19T12:38:08.170Z,101194.09
2022-08-19T12:43:09.678Z,101181.75
2022-08-19T12:48:33.799Z,101185.00
2022-08-19T12:53:33.404Z,101191.50
2022-08-19T12:58:36.042Z,101188.78
2022-08-19T13:03:40.641Z,101178.97
2022-08-19T13:08:42.720Z,101168.75
2022-08-19T13:13:51.997Z,101180.53
2022-08-19T13:18:53.907Z,101175.31
2022-08-19T13:23:55.352Z,101181.16
2022-08-19T13:29:15.695Z,101182.91
2022-08-19T13:34:20.149Z,101174.91
2022-08-19T13:39:23.877Z,101177.13
2022-08-19T13:44:25.633Z,101167.66
2022-08-19T13:49:31.485Z,101172.53
2022-08-19T13:54:33.389Z,101152.44
2022-08-19T13:59:34.881Z,101155.81
2022-08-19T14:04:36.392Z,101152.19
2022-08-19T14:09:37.901Z,101144.75
2022-08-19T14:14:40.477Z,101141.31
2022-08-19T14:19:43.237Z,101145.78
2022-08-19T14:24:51.069Z,101146.72
2022-08-19T14:29:53.390Z,101143.22
2022-08-19T14:34:55.407Z,101124.47
2022-08-19T14:39:57.858Z,101129.47
2022-08-19T14:45:00.392Z,101141.41
2022-08-19T14:50:05.140Z,101142.34
2022-08-19T14:55:07.822Z,101134.91
2022-08-19T15:00:13.975Z,101136.34
2022-08-19T15:05:15.586Z,101130.63
2022-08-19T15:10:17.247Z,101130.25
2022-08-19T15:15:18.998Z,101136.19
2022-08-19T15:20:23.140Z,101145.06
2022-08-19T15:25:24.645Z,101136.03
2022-08-19T15:30:29.094Z,101144.09
2022-08-19T15:35:31.322Z,101150.44
2022-08-19T15:40:32.850Z,101153.28
2022-08-19T15:45:34.505Z,101157.22
2022-08-19T15:50:36.127Z,101154.75
2022-08-19T15:55:44.521Z,101168.22
2022-08-19T16:01:04.361Z,101155.84
2022-08-19T16:06:26.217Z,101154.19
2022-08-19T16:11:31.050Z,101153.78
2022-08-19T16:16:35.048Z,101161.22
2022-08-19T16:21:37.995Z,101156.28
2022-08-19T16:26:43.310Z,101152.16
2022-08-19T16:31:46.751Z,101149.72
2022-08-19T16:36:48.343Z,101152.09
2022-08-19T16:41:51.434Z,101158.84
2022-08-19T16:46:59.181Z,101153.09
2022-08-19T16:52:03.379Z,101162.53
2022-08-19T16:57:08.876Z,101160.72
2022-08-19T17:02:14.421Z,101157.94
2022-08-19T17:07:15.940Z,101153.25
2022-08-19T17:12:17.482Z,101148.75
2022-08-19T17:17:21.754Z,101146.56
2022-08-19T17:22:26.898Z,101164.13
2022-08-19T17:27:31.311Z,101156.69
2022-08-19T17:32:35.489Z,101152.72
2022-08-19T17:37:37.694Z,101156.47
2022-08-19T17:42:39.999Z,101161.06
2022-08-19T17:47:41.653Z,101153.19
2022-08-19T17:52:44.108Z,101150.72
2022-08-19T17:57:46.885Z,101145.47
2022-08-19T18:02:51.543Z,101147.59
2022-08-19T18:07:54.250Z,101156.72
2022-08-19T18:12:56.210Z,101144.25
2022-08-19T18:17:58.322Z,101145.25
2022-08-19T18:23:41.181Z,101140.06
2022-08-19T18:28:23.731Z,101146.56
2022-08-19T18:33:25.661Z,101145.25
2022-08-19T18:38:46.002Z,101146.38
2022-08-19T18:44:05.776Z,101160.91
2022-08-19T18:49:09.368Z,101169.53
2022-08-19T18:54:10.905Z,101161.59
2022-08-19T18:59:14.131Z,101160.09
2022-08-19T19:04:16.343Z,101165.59
2022-08-19T19:09:21.101Z,101177.34
2022-08-19T19:14:48.071Z,101158.84
2022-08-19T19:19:50.500Z,101169.72
2022-08-19T19:24:54.065Z,101169.09
2022-08-19T19:29:57.275Z,101179.91
2022-08-19T19:34:59.504Z,101173.03
2022-08-19T19:40:01.071Z,101185.69
2022-08-19T19:45:02.956Z,101181.59
2022-08-19T19:50:14.445Z,101182.78
2022-08-19T19:55:20.576Z,101184.84
2022-08-19T20:00:22.395Z,101189.56
2022-08-19T20:05:24.302Z,101197.81
2022-08-19T20:10:26.696Z,101199.88
2022-08-19T20:15:29.296Z,101200.91
2022-08-19T20:26:09.700Z,101193.31
2022-08-19T20:31:23.176Z,101189.91
2022-08-19T20:36:29.460Z,101199.81
2022-08-19T20:41:31.659Z,101192.78
2022-08-19T20:46:34.449Z,101196.69
2022-08-19T20:51:35.956Z,101210.09
2022-08-19T20:56:37.477Z,101226.06
2022-08-19T21:01:41.185Z,101235.03
2022-08-19T21:06:45.473Z,101242.13
2022-08-19T21:11:47.804Z,101248.47
2022-08-19T21:16:50.347Z,101257.44
2022-08-19T21:21:52.373Z,101252.25
2022-08-19T21:26:53.935Z,101254.03
2022-08-19T21:31:55.504Z,101259.34
2022-08-19T21:37:01.442Z,101262.91
2022-08-19T21:42:03.348Z,101263.84
2022-08-19T21:47:05.488Z,57128.34
2022-08-19T21:52:10.621Z,57128.34
2022-08-19T21:57:12.139Z,57128.34
2022-08-19T22:02:22.027Z,57128.34
2022-08-19T22:07:26.773Z,57128.34
2022-08-19T22:12:32.397Z,57128.34
2022-08-19T22:17:33.938Z,57128.34
2022-08-19T22:22:35.659Z,57128.34
2022-08-19T22:27:37.472Z,57128.34
2022-08-19T22:32:39.018Z,57128.34
2022-08-19T22:37:41.728Z,57128.34
2022-08-19T22:42:45.069Z,57128.34
2022-08-19T22:47:46.574Z,57128.34
2022-08-19T22:52:51.994Z,57128.34
2022-08-19T22:57:54.630Z,57128.34
2022-08-19T23:02:57.418Z,101281.31
2022-08-19T23:07:59.114Z,101287.72
2022-08-19T23:13:00.707Z,101284.38
2022-08-19T23:18:04.307Z,101280.94
2022-08-19T23:23:10.443Z,101284.53
2022-08-19T23:34:06.331Z,101301.47
2022-08-19T23:39:09.654Z,101290.88
2022-08-19T23:44:19.561Z,101295.31
2022-08-19T23:49:21.270Z,101297.13
2022-08-19T23:54:43.077Z,101297.13
2022-08-19T23:59:46.004Z,101303.34
